Pagrindinis puslapis
METAR-TAF:

METAR-TAF

Oro uostai :

Bluefields, Nikaragva

platuma: 12-00N, ilguma: 083-46W, Aukštis: 5 m

Dabartinis oras

Ataskaita buvo paskelbta 5 valandos ir 33 minutes, ne 23:00 UTC
Vėjas 8 kt iš Rytų
Temperatūra 29°C
Drėgmė 79%
Slėgis 1011 hPa
Matomumas 10 km arba daugiau
Išsisklaidę debesys ne aukštis 2000 ft

METAR: MNBL 242300Z 09008KT 9999 SCT020 29/25 Q1011

Laikas: 22:33 (04:33 UTC)

Prognozė

Ataskaita buvo paskelbta 7 valandos ir 33 minutes, ne 21:00 UTC
Prognozė galioja nuo 25 metu 00 UTC su 25 metu 24 UTC
Vėjas 8 kt iš Rytų
Matomumas 10 km arba daugiau
Išsisklaidę debesys ne aukštis 1800 ft
Išsisklaidę debesys ne aukštis 30000 ft
Tikimybė 30% :
Laikinai
nuo 25 metu 07 UTC su 25 metu 13 UTC
Vėjas 4 kt iš Šiaurės/Šiaurės Rytų
Matomumas: 7000 m
Su prošvaistėmis ne aukštis 1800 ft

TAF: MNBL 242100Z 2500/2524 09008KT 9999 SCT018 SCT300 PROB30 TEMPO 2507/2513 03004KT 7000 DZ/RA BKN018

Orai ataskaitas ir orų prognozės (METAR, TAF).

turimą stotys yra geltonos ir raudonos taškus žemėlapyje.

Perkelti pele per norėdami pamatyti stoties vardą.

Tada spustelėkite, norėdami matyti oro stebėjimo ir prognozės.

Norėdami pakeisti žemėlapį: spustelėkite ant žalios mygtukų su juodo kryžiaus žemyn,; žalią mygtuką su brūkšneliu, jei norite nutolinti; arba žalių rodyklių gretimoms žemėlapius.


METAR-TAF: